sensor_id;sensor_type;location;lat;lon;timestamp;pressure;altitude;pressure_sealevel;temperature;humidity
11198;BME280;5655;48.744;9.162;2023-02-12T00:01:29;98033.69;;;7.54;100.00
11198;BME280;5655;48.744;9.162;2023-02-12T00:03:55;98040.06;;;7.89;100.00
11198;BME280;5655;48.744;9.162;2023-02-12T00:06:20;98036.19;;;7.50;100.00
11198;BME280;5655;48.744;9.162;2023-02-12T00:08:51;98026.13;;;7.69;100.00
11198;BME280;5655;48.744;9.162;2023-02-12T00:11:23;98034.63;;;7.71;100.00
11198;BME280;5655;48.744;9.162;2023-02-12T00:13:49;98039.81;;;7.99;100.00
11198;BME280;5655;48.744;9.162;2023-02-12T00:16:17;98031.97;;;7.94;100.00
11198;BME280;5655;48.744;9.162;2023-02-12T00:18:43;98028.88;;;7.20;100.00
11198;BME280;5655;48.744;9.162;2023-02-12T00:21:09;98038.69;;;7.33;100.00
11198;BME280;5655;48.744;9.162;2023-02-12T00:23:36;98041.09;;;7.57;100.00
11198;BME280;5655;48.744;9.162;2023-02-12T00:26:06;98041.78;;;7.85;100.00
11198;BME280;5655;48.744;9.162;2023-02-12T00:28:32;98037.94;;;7.55;100.00
11198;BME280;5655;48.744;9.162;2023-02-12T00:30:57;98043.28;;;7.55;100.00
11198;BME280;5655;48.744;9.162;2023-02-12T00:33:22;98038.47;;;7.43;100.00
11198;BME280;5655;48.744;9.162;2023-02-12T00:35:55;98038.25;;;7.75;100.00
11198;BME280;5655;48.744;9.162;2023-02-12T00:38:20;98051.66;;;7.48;100.00
11198;BME280;5655;48.744;9.162;2023-02-12T00:40:46;98040.84;;;7.45;100.00
11198;BME280;5655;48.744;9.162;2023-02-12T00:43:11;98048.53;;;7.46;100.00
11198;BME280;5655;48.744;9.162;2023-02-12T00:45:36;98052.06;;;7.78;100.00
11198;BME280;5655;48.744;9.162;2023-02-12T00:48:02;98050.75;;;7.89;100.00
11198;BME280;5655;48.744;9.162;2023-02-12T00:50:28;98052.44;;;7.85;100.00
11198;BME280;5655;48.744;9.162;2023-02-12T00:52:54;98058.22;;;7.64;100.00
11198;BME280;5655;48.744;9.162;2023-02-12T00:55:19;98060.22;;;7.59;100.00
11198;BME280;5655;48.744;9.162;2023-02-12T00:57:45;98057.78;;;7.49;100.00
11198;BME280;5655;48.744;9.162;2023-02-12T01:00:11;98059.72;;;7.57;100.00
11198;BME280;5655;48.744;9.162;2023-02-12T01:02:37;98055.41;;;7.47;100.00
11198;BME280;5655;48.744;9.162;2023-02-12T01:05:03;98048.25;;;7.70;100.00
11198;BME280;5655;48.744;9.162;2023-02-12T01:07:28;98046.84;;;7.95;100.00
11198;BME280;5655;48.744;9.162;2023-02-12T01:09:53;98048.06;;;7.89;100.00
11198;BME280;5655;48.744;9.162;2023-02-12T01:12:19;98054.25;;;7.75;100.00
11198;BME280;5655;48.744;9.162;2023-02-12T01:14:44;98052.25;;;7.59;100.00
11198;BME280;5655;48.744;9.162;2023-02-12T01:17:09;98052.44;;;7.85;100.00
11198;BME280;5655;48.744;9.162;2023-02-12T01:19:35;98056.78;;;7.58;100.00
11198;BME280;5655;48.744;9.162;2023-02-12T01:22:00;98056.78;;;7.58;100.00
11198;BME280;5655;48.744;9.162;2023-02-12T01:24:25;98054.00;;;7.63;100.00
11198;BME280;5655;48.744;9.162;2023-02-12T01:26:50;98050.84;;;7.84;100.00
11198;BME280;5655;48.744;9.162;2023-02-12T01:29:16;98058.50;;;7.77;100.00
11198;BME280;5655;48.744;9.162;2023-02-12T01:31:41;98046.47;;;7.65;100.00
11198;BME280;5655;48.744;9.162;2023-02-12T01:34:07;98048.31;;;7.79;100.00
11198;BME280;5655;48.744;9.162;2023-02-12T01:36:34;98046.91;;;8.03;100.00
11198;BME280;5655;48.744;9.162;2023-02-12T01:39:00;98058.56;;;8.16;100.00
11198;BME280;5655;48.744;9.162;2023-02-12T01:41:32;98046.59;;;8.05;100.00
11198;BME280;5655;48.744;9.162;2023-02-12T01:44:07;98063.50;;;8.00;100.00
11198;BME280;5655;48.744;9.162;2023-02-12T01:46:34;98043.69;;;7.70;100.00
11198;BME280;5655;48.744;9.162;2023-02-12T01:49:00;98049.88;;;8.02;100.00
11198;BME280;5655;48.744;9.162;2023-02-12T01:51:27;98047.84;;;7.77;100.00
11198;BME280;5655;48.744;9.162;2023-02-12T01:53:54;98048.19;;;7.84;100.00
11198;BME280;5655;48.744;9.162;2023-02-12T01:56:24;98041.38;;;8.00;100.00
11198;BME280;5655;48.744;9.162;2023-02-12T01:58:51;98042.00;;;7.97;100.00
11198;BME280;5655;48.744;9.162;2023-02-12T02:01:21;98042.19;;;8.00;100.00
11198;BME280;5655;48.744;9.162;2023-02-12T02:03:49;98037.41;;;8.11;100.00
11198;BME280;5655;48.744;9.162;2023-02-12T02:06:22;98039.34;;;7.74;100.00
11198;BME280;5655;48.744;9.162;2023-02-12T02:08:49;98037.25;;;7.49;100.00
11198;BME280;5655;48.744;9.162;2023-02-12T02:11:15;98041.28;;;7.83;100.00
11198;BME280;5655;48.744;9.162;2023-02-12T02:13:59;98037.34;;;7.58;100.00
11198;BME280;5655;48.744;9.162;2023-02-12T02:16:51;98033.63;;;7.90;100.00
11198;BME280;5655;48.744;9.162;2023-02-12T02:19:34;98036.91;;;7.64;100.00
11198;BME280;5655;48.744;9.162;2023-02-12T02:25:07;98023.47;;;7.92;100.00
11198;BME280;5655;48.744;9.162;2023-02-12T02:28:01;98020.66;;;7.97;100.00
11198;BME280;5655;48.744;9.162;2023-02-12T02:40:43;98014.78;;;7.64;100.00
11198;BME280;5655;48.744;9.162;2023-02-12T02:43:20;98009.28;;;7.83;100.00
11198;BME280;5655;48.744;9.162;2023-02-12T02:45:51;98011.63;;;8.06;100.00
11198;BME280;5655;48.744;9.162;2023-02-12T02:48:38;98018.31;;;8.26;100.00
11198;BME280;5655;48.744;9.162;2023-02-12T02:51:17;98006.16;;;8.11;100.00
11198;BME280;5655;48.744;9.162;2023-02-12T02:54:04;98015.00;;;8.20;100.00
11198;BME280;5655;48.744;9.162;2023-02-12T02:56:34;98017.50;;;7.95;100.00
11198;BME280;5655;48.744;9.162;2023-02-12T02:59:05;98017.06;;;7.70;100.00
11198;BME280;5655;48.744;9.162;2023-02-12T03:01:52;98019.34;;;7.86;100.00
11198;BME280;5655;48.744;9.162;2023-02-12T03:04:28;98002.13;;;7.92;100.00
11198;BME280;5655;48.744;9.162;2023-02-12T03:07:05;98011.59;;;7.98;100.00
11198;BME280;5655;48.744;9.162;2023-02-12T03:09:42;98011.59;;;7.98;100.00
11198;BME280;5655;48.744;9.162;2023-02-12T03:12:14;98012.44;;;7.85;100.00
11198;BME280;5655;48.744;9.162;2023-02-12T03:14:45;98016.53;;;7.91;100.00
11198;BME280;5655;48.744;9.162;2023-02-12T03:17:16;98011.66;;;7.84;100.00
11198;BME280;5655;48.744;9.162;2023-02-12T03:19:49;98019.88;;;7.96;100.00
11198;BME280;5655;48.744;9.162;2023-02-12T03:22:21;98017.19;;;8.18;100.00
11198;BME280;5655;48.744;9.162;2023-02-12T03:24:54;98022.78;;;8.08;100.00
11198;BME280;5655;48.744;9.162;2023-02-12T03:29:53;98023.09;;;7.40;100.00
11198;BME280;5655;48.744;9.162;2023-02-12T03:32:26;98033.22;;;7.74;100.00
11198;BME280;5655;48.744;9.162;2023-02-12T03:35:55;98027.59;;;7.98;100.00
11198;BME280;5655;48.744;9.162;2023-02-12T03:38:08;98020.69;;;8.28;100.00
11198;BME280;5655;48.744;9.162;2023-02-12T03:40:55;98028.94;;;8.40;100.00
11198;BME280;5655;48.744;9.162;2023-02-12T03:43:33;98027.97;;;8.36;100.00
11198;BME280;5655;48.744;9.162;2023-02-12T03:46:25;98021.47;;;8.28;100.00
11198;BME280;5655;48.744;9.162;2023-02-12T03:49:03;98023.69;;;7.82;100.00
11198;BME280;5655;48.744;9.162;2023-02-12T03:51:35;98024.66;;;7.86;100.00
11198;BME280;5655;48.744;9.162;2023-02-12T03:54:02;98026.41;;;8.12;100.00
11198;BME280;5655;48.744;9.162;2023-02-12T03:56:35;98023.00;;;7.98;100.00
11198;BME280;5655;48.744;9.162;2023-02-12T03:59:02;98022.84;;;7.95;100.00
11198;BME280;5655;48.744;9.162;2023-02-12T04:01:30;98027.28;;;7.77;100.00
11198;BME280;5655;48.744;9.162;2023-02-12T04:03:56;98038.25;;;7.53;100.00
11198;BME280;5655;48.744;9.162;2023-02-12T04:06:27;98035.25;;;7.99;100.00
11198;BME280;5655;48.744;9.162;2023-02-12T04:08:55;98036.75;;;7.47;100.00
11198;BME280;5655;48.744;9.162;2023-02-12T04:11:30;98035.28;;;7.55;100.00
11198;BME280;5655;48.744;9.162;2023-02-12T04:14:21;98031.31;;;7.52;100.00
11198;BME280;5655;48.744;9.162;2023-02-12T04:17:25;98029.44;;;7.17;100.00
11198;BME280;5655;48.744;9.162;2023-02-12T04:20:10;98035.66;;;7.26;100.00
11198;BME280;5655;48.744;9.162;2023-02-12T04:23:05;98033.00;;;7.12;100.00
11198;BME280;5655;48.744;9.162;2023-02-12T04:25:49;98033.56;;;7.37;100.00
11198;BME280;5655;48.744;9.162;2023-02-12T04:28:37;98034.47;;;7.32;100.00
11198;BME280;5655;48.744;9.162;2023-02-12T04:31:12;98042.09;;;7.11;100.00
11198;BME280;5655;48.744;9.162;2023-02-12T04:36:34;98039.81;;;7.05;100.00
11198;BME280;5655;48.744;9.162;2023-02-12T04:39:08;98044.78;;;7.34;100.00
11198;BME280;5655;48.744;9.162;2023-02-12T04:41:36;98041.28;;;7.24;100.00
11198;BME280;5655;48.744;9.162;2023-02-12T04:44:23;98051.53;;;7.31;100.00
11198;BME280;5655;48.744;9.162;2023-02-12T04:46:49;98046.44;;;7.07;100.00
11198;BME280;5655;48.744;9.162;2023-02-12T04:49:17;98038.31;;;7.12;100.00
11198;BME280;5655;48.744;9.162;2023-02-12T04:51:43;98045.06;;;6.96;100.00
11198;BME280;5655;48.744;9.162;2023-02-12T04:54:09;98047.53;;;6.93;100.00
11198;BME280;5655;48.744;9.162;2023-02-12T04:56:34;98046.06;;;6.87;100.00
11198;BME280;5655;48.744;9.162;2023-02-12T04:58:59;98058.47;;;7.05;100.00
11198;BME280;5655;48.744;9.162;2023-02-12T05:01:25;98062.25;;;6.76;100.00
11198;BME280;5655;48.744;9.162;2023-02-12T05:03:50;98049.81;;;6.86;100.00
11198;BME280;5655;48.744;9.162;2023-02-12T05:06:16;98050.63;;;6.72;100.00
11198;BME280;5655;48.744;9.162;2023-02-12T05:08:41;98055.53;;;6.65;100.00
11198;BME280;5655;48.744;9.162;2023-02-12T05:11:08;98055.09;;;6.99;100.00
11198;BME280;5655;48.744;9.162;2023-02-12T05:13:34;98057.41;;;6.78;100.00
11198;BME280;5655;48.744;9.162;2023-02-12T05:16:03;98048.78;;;7.09;100.00
11198;BME280;5655;48.744;9.162;2023-02-12T05:18:30;98042.72;;;6.67;100.00
11198;BME280;5655;48.744;9.162;2023-02-12T05:21:00;98048.00;;;6.95;100.00
11198;BME280;5655;48.744;9.162;2023-02-12T05:23:31;98036.06;;;7.19;100.00
11198;BME280;5655;48.744;9.162;2023-02-12T05:25:57;98048.25;;;6.84;100.00
11198;BME280;5655;48.744;9.162;2023-02-12T05:28:23;98051.41;;;6.73;100.00
11198;BME280;5655;48.744;9.162;2023-02-12T05:30:48;98044.50;;;6.58;100.00
11198;BME280;5655;48.744;9.162;2023-02-12T05:33:14;98047.84;;;6.64;100.00
11198;BME280;5655;48.744;9.162;2023-02-12T05:35:39;98043.00;;;6.52;100.00
11198;BME280;5655;48.744;9.162;2023-02-12T05:38:04;98050.66;;;6.40;100.00
11198;BME280;5655;48.744;9.162;2023-02-12T05:40:30;98047.84;;;6.50;100.00
11198;BME280;5655;48.744;9.162;2023-02-12T05:42:55;98043.19;;;6.69;100.00
11198;BME280;5655;48.744;9.162;2023-02-12T05:45:20;98044.69;;;6.75;100.00
11198;BME280;5655;48.744;9.162;2023-02-12T05:47:45;98044.88;;;6.65;100.00
11198;BME280;5655;48.744;9.162;2023-02-12T05:50:11;98051.00;;;6.79;100.00
11198;BME280;5655;48.744;9.162;2023-02-12T05:52:36;98046.66;;;6.83;100.00
11198;BME280;5655;48.744;9.162;2023-02-12T05:55:02;98049.31;;;6.70;100.00
11198;BME280;5655;48.744;9.162;2023-02-12T05:57:27;98052.75;;;6.70;100.00
11198;BME280;5655;48.744;9.162;2023-02-12T05:59:52;98055.44;;;6.98;100.00
11198;BME280;5655;48.744;9.162;2023-02-12T06:02:18;98054.91;;;6.96;100.00
11198;BME280;5655;48.744;9.162;2023-02-12T06:04:43;98062.81;;;6.73;100.00
11198;BME280;5655;48.744;9.162;2023-02-12T06:07:08;98060.16;;;7.01;100.00
11198;BME280;5655;48.744;9.162;2023-02-12T06:09:34;98056.59;;;6.78;100.00
11198;BME280;5655;48.744;9.162;2023-02-12T06:12:00;98053.75;;;6.74;100.00
11198;BME280;5655;48.744;9.162;2023-02-12T06:14:26;98049.41;;;6.78;100.00
11198;BME280;5655;48.744;9.162;2023-02-12T06:16:51;98052.47;;;6.86;100.00
11198;BME280;5655;48.744;9.162;2023-02-12T06:19:17;98055.53;;;6.65;100.00
11198;BME280;5655;48.744;9.162;2023-02-12T06:21:43;98054.72;;;6.92;100.00
11198;BME280;5655;48.744;9.162;2023-02-12T06:24:10;98055.34;;;6.89;100.00
11198;BME280;5655;48.744;9.162;2023-02-12T06:26:36;98052.34;;;7.04;100.00
11198;BME280;5655;48.744;9.162;2023-02-12T06:29:01;98052.56;;;6.80;100.00
11198;BME280;5655;48.744;9.162;2023-02-12T06:31:32;98046.84;;;7.01;100.00
11198;BME280;5655;48.744;9.162;2023-02-12T06:34:01;98054.34;;;6.85;100.00
11198;BME280;5655;48.744;9.162;2023-02-12T06:36:27;98060.16;;;6.73;100.00
11198;BME280;5655;48.744;9.162;2023-02-12T06:38:52;98053.66;;;7.07;100.00
11198;BME280;5655;48.744;9.162;2023-02-12T06:41:18;98065.97;;;7.03;100.00
11198;BME280;5655;48.744;9.162;2023-02-12T06:43:44;98058.09;;;6.70;100.00
11198;BME280;5655;48.744;9.162;2023-02-12T06:46:09;98063.00;;;6.91;100.00
11198;BME280;5655;48.744;9.162;2023-02-12T06:48:35;98068.63;;;7.03;100.00
11198;BME280;5655;48.744;9.162;2023-02-12T06:51:11;98075.72;;;7.57;100.00
11198;BME280;5655;48.744;9.162;2023-02-12T06:53:36;98069.59;;;7.20;100.00
11198;BME280;5655;48.744;9.162;2023-02-12T06:56:03;98067.72;;;7.21;100.00
11198;BME280;5655;48.744;9.162;2023-02-12T06:58:30;98074.16;;;7.06;100.00
11198;BME280;5655;48.744;9.162;2023-02-12T07:00:55;98083.41;;;7.09;100.00
11198;BME280;5655;48.744;9.162;2023-02-12T07:03:20;98085.25;;;7.22;100.00
11198;BME280;5655;48.744;9.162;2023-02-12T07:05:46;98092.00;;;7.19;100.00
11198;BME280;5655;48.744;9.162;2023-02-12T07:08:13;98088.06;;;6.90;100.00
11198;BME280;5655;48.744;9.162;2023-02-12T07:10:38;98078.59;;;7.11;100.00
11198;BME280;5655;48.744;9.162;2023-02-12T07:13:04;98089.41;;;7.28;100.00
11198;BME280;5655;48.744;9.162;2023-02-12T07:15:29;98084.69;;;6.70;100.00
11198;BME280;5655;48.744;9.162;2023-02-12T07:17:54;98085.88;;;7.19;100.00
11198;BME280;5655;48.744;9.162;2023-02-12T07:20:20;98075.81;;;6.75;100.00
11198;BME280;5655;48.744;9.162;2023-02-12T07:22:45;98087.13;;;7.21;100.00
11198;BME280;5655;48.744;9.162;2023-02-12T07:25:10;98082.84;;;7.48;100.00
11198;BME280;5655;48.744;9.162;2023-02-12T07:27:36;98085.25;;;7.22;100.00
11198;BME280;5655;48.744;9.162;2023-02-12T07:30:04;98085.19;;;7.13;100.00
11198;BME280;5655;48.744;9.162;2023-02-12T07:32:33;98079.22;;;7.44;100.00
11198;BME280;5655;48.744;9.162;2023-02-12T07:34:59;98090.56;;;7.36;100.00
11198;BME280;5655;48.744;9.162;2023-02-12T07:37:25;98093.97;;;7.14;100.00
11198;BME280;5655;48.744;9.162;2023-02-12T07:39:50;98084.38;;;7.13;100.00
11198;BME280;5655;48.744;9.162;2023-02-12T07:42:16;98088.81;;;7.04;100.00
11198;BME280;5655;48.744;9.162;2023-02-12T07:44:42;98088.72;;;6.95;100.00
11198;BME280;5655;48.744;9.162;2023-02-12T07:47:08;98090.81;;;7.12;100.00
11198;BME280;5655;48.744;9.162;2023-02-12T07:49:33;98095.25;;;6.89;100.00
11198;BME280;5655;48.744;9.162;2023-02-12T07:51:58;98083.91;;;6.83;100.00
11198;BME280;5655;48.744;9.162;2023-02-12T07:54:24;98082.13;;;6.79;100.00
11198;BME280;5655;48.744;9.162;2023-02-12T07:56:49;98089.41;;;6.46;100.00
11198;BME280;5655;48.744;9.162;2023-02-12T07:59:17;98085.41;;;6.90;100.00
11198;BME280;5655;48.744;9.162;2023-02-12T08:01:46;98097.31;;;7.33;100.00
11198;BME280;5655;48.744;9.162;2023-02-12T08:04:13;98095.31;;;7.25;100.00
11198;BME280;5655;48.744;9.162;2023-02-12T08:06:41;98083.72;;;6.66;100.00
11198;BME280;5655;48.744;9.162;2023-02-12T08:09:09;98087.28;;;6.89;100.00
11198;BME280;5655;48.744;9.162;2023-02-12T08:11:36;98095.53;;;6.74;100.00
11198;BME280;5655;48.744;9.162;2023-02-12T08:14:03;98089.41;;;6.73;100.00
11198;BME280;5655;48.744;9.162;2023-02-12T08:16:29;98088.53;;;7.05;100.00
11198;BME280;5655;48.744;9.162;2023-02-12T08:18:57;98088.25;;;6.93;100.00
11198;BME280;5655;48.744;9.162;2023-02-12T08:21:26;98090.59;;;6.95;100.00
11198;BME280;5655;48.744;9.162;2023-02-12T08:23:53;98092.09;;;7.01;100.00
11198;BME280;5655;48.744;9.162;2023-02-12T08:26:27;98082.63;;;7.58;100.00
11198;BME280;5655;48.744;9.162;2023-02-12T08:29:05;98079.81;;;7.41;100.00
11198;BME280;5655;48.744;9.162;2023-02-12T08:31:35;98087.81;;;7.27;100.00
11198;BME280;5655;48.744;9.162;2023-02-12T08:34:02;98095.13;;;7.21;100.00
11198;BME280;5655;48.744;9.162;2023-02-12T08:36:30;98081.94;;;7.03;100.00
11198;BME280;5655;48.744;9.162;2023-02-12T08:38:59;98092.97;;;6.82;100.00
11198;BME280;5655;48.744;9.162;2023-02-12T08:41:26;98086.50;;;7.38;100.00
11198;BME280;5655;48.744;9.162;2023-02-12T08:43:54;98085.25;;;7.22;100.00
11198;BME280;5655;48.744;9.162;2023-02-12T08:46:22;98082.06;;;7.47;100.00
11198;BME280;5655;48.744;9.162;2023-02-12T08:48:51;98089.31;;;7.33;100.00
11198;BME280;5655;48.744;9.162;2023-02-12T08:51:19;98090.19;;;7.64;100.00
11198;BME280;5655;48.744;9.162;2023-02-12T08:53:47;98091.84;;;7.74;100.00
11198;BME280;5655;48.744;9.162;2023-02-12T08:56:14;98089.13;;;7.65;100.00
11198;BME280;5655;48.744;9.162;2023-02-12T08:58:41;98088.97;;;7.48;100.00
11198;BME280;5655;48.744;9.162;2023-02-12T09:01:15;98087.75;;;7.90;100.00
11198;BME280;5655;48.744;9.162;2023-02-12T09:03:42;98083.03;;;7.51;100.00
11198;BME280;5655;48.744;9.162;2023-02-12T09:06:08;98087.31;;;7.74;100.00
11198;BME280;5655;48.744;9.162;2023-02-12T09:08:35;98094.38;;;7.93;100.00
11198;BME280;5655;48.744;9.162;2023-02-12T09:11:05;98082.13;;;8.14;100.00
11198;BME280;5655;48.744;9.162;2023-02-12T09:13:31;98095.59;;;8.31;100.00
11198;BME280;5655;48.744;9.162;2023-02-12T09:15:59;98091.38;;;8.39;100.00
11198;BME280;5655;48.744;9.162;2023-02-12T09:18:25;98096.06;;;8.33;100.00
11198;BME280;5655;48.744;9.162;2023-02-12T09:20:50;98090.84;;;8.28;100.00
11198;BME280;5655;48.744;9.162;2023-02-12T09:23:15;98081.63;;;8.12;100.00
11198;BME280;5655;48.744;9.162;2023-02-12T09:25:42;98088.94;;;8.51;100.00
11198;BME280;5655;48.744;9.162;2023-02-12T09:28:09;98088.88;;;8.42;100.00
11198;BME280;5655;48.744;9.162;2023-02-12T09:30:36;98091.09;;;8.71;100.00
11198;BME280;5655;48.744;9.162;2023-02-12T09:33:02;98096.91;;;8.73;100.00
11198;BME280;5655;48.744;9.162;2023-02-12T09:35:28;98100.31;;;8.65;100.00
11198;BME280;5655;48.744;9.162;2023-02-12T09:37:53;98097.84;;;8.46;100.00
11198;BME280;5655;48.744;9.162;2023-02-12T09:40:47;98093.31;;;8.47;100.00
11198;BME280;5655;48.744;9.162;2023-02-12T09:46:11;98102.03;;;9.00;100.00
11198;BME280;5655;48.744;9.162;2023-02-12T09:51:27;98095.63;;;9.10;100.00
11198;BME280;5655;48.744;9.162;2023-02-12T09:54:02;98096.91;;;9.21;100.00
11198;BME280;5655;48.744;9.162;2023-02-12T09:56:29;98093.09;;;9.05;100.00
11198;BME280;5655;48.744;9.162;2023-02-12T09:58:59;98096.91;;;9.21;100.00
11198;BME280;5655;48.744;9.162;2023-02-12T10:01:27;98099.84;;;9.11;100.00
11198;BME280;5655;48.744;9.162;2023-02-12T10:03:53;98105.16;;;9.02;100.00
11198;BME280;5655;48.744;9.162;2023-02-12T10:06:21;98096.91;;;9.21;100.00
11198;BME280;5655;48.744;9.162;2023-02-12T10:14:53;98100.19;;;9.09;100.00
11198;BME280;5655;48.744;9.162;2023-02-12T10:17:42;98104.16;;;9.29;100.00
11198;BME280;5655;48.744;9.162;2023-02-12T10:20:32;98102.53;;;9.11;100.00
11198;BME280;5655;48.744;9.162;2023-02-12T10:25:43;98091.69;;;8.68;100.00
11198;BME280;5655;48.744;9.162;2023-02-12T10:28:18;98088.50;;;8.57;100.00
11198;BME280;5655;48.744;9.162;2023-02-12T10:30:51;98097.19;;;8.72;100.00
11198;BME280;5655;48.744;9.162;2023-02-12T10:35:52;98097.53;;;9.18;100.00
11198;BME280;5655;48.744;9.162;2023-02-12T10:38:22;98095.03;;;9.30;100.00
11198;BME280;5655;48.744;9.162;2023-02-12T10:40:50;98093.03;;;8.88;100.00
11198;BME280;5655;48.744;9.162;2023-02-12T10:43:15;98092.03;;;9.15;100.00
11198;BME280;5655;48.744;9.162;2023-02-12T10:45:42;98087.66;;;9.36;100.00
11198;BME280;5655;48.744;9.162;2023-02-12T10:48:17;98082.19;;;8.84;100.00
11198;BME280;5655;48.744;9.162;2023-02-12T10:53:32;98077.06;;;9.05;100.00
11198;BME280;5655;48.744;9.162;2023-02-12T10:58:38;98079.78;;;9.22;100.00
11198;BME280;5655;48.744;9.162;2023-02-12T11:01:04;98080.09;;;9.29;100.00
11198;BME280;5655;48.744;9.162;2023-02-12T11:03:31;98079.84;;;9.56;100.00
11198;BME280;5655;48.744;9.162;2023-02-12T11:06:25;98078.75;;;9.75;100.00
11198;BME280;5655;48.744;9.162;2023-02-12T11:08:52;98074.16;;;9.58;100.00
11198;BME280;5655;48.744;9.162;2023-02-12T11:11:21;98074.50;;;9.82;100.00
11198;BME280;5655;48.744;9.162;2023-02-12T11:14:17;98082.97;;;9.76;100.00
11198;BME280;5655;48.744;9.162;2023-02-12T11:16:51;98081.22;;;9.97;100.00
11198;BME280;5655;48.744;9.162;2023-02-12T11:19:23;98074.63;;;10.03;100.00
11198;BME280;5655;48.744;9.162;2023-02-12T11:21:49;98077.94;;;9.83;100.00
11198;BME280;5655;48.744;9.162;2023-02-12T11:24:28;98072.59;;;9.57;100.00
11198;BME280;5655;48.744;9.162;2023-02-12T11:29:35;98069.44;;;9.98;100.00
11198;BME280;5655;48.744;9.162;2023-02-12T11:32:04;98069.56;;;10.10;100.00
11198;BME280;5655;48.744;9.162;2023-02-12T11:34:32;98055.78;;;9.56;100.00
11198;BME280;5655;48.744;9.162;2023-02-12T11:36:58;98069.94;;;9.83;100.00
11198;BME280;5655;48.744;9.162;2023-02-12T11:41:57;98069.78;;;9.88;100.00
11198;BME280;5655;48.744;9.162;2023-02-12T11:44:27;98069.59;;;9.93;100.00
11198;BME280;5655;48.744;9.162;2023-02-12T11:47:00;98071.66;;;10.05;100.00
11198;BME280;5655;48.744;9.162;2023-02-12T11:49:32;98060.44;;;10.11;100.00
11198;BME280;5655;48.744;9.162;2023-02-12T11:51:59;98069.28;;;10.20;100.00
11198;BME280;5655;48.744;9.162;2023-02-12T11:54:28;98059.00;;;10.39;100.00
11198;BME280;5655;48.744;9.162;2023-02-12T11:56:54;98061.63;;;10.57;100.00
11198;BME280;5655;48.744;9.162;2023-02-12T12:01:51;98053.22;;;10.20;100.00
11198;BME280;5655;48.744;9.162;2023-02-12T12:04:22;98055.41;;;10.35;100.00
11198;BME280;5655;48.744;9.162;2023-02-12T12:09:45;98053.16;;;10.84;100.00
11198;BME280;5655;48.744;9.162;2023-02-12T12:12:31;98059.56;;;10.54;100.00
11198;BME280;5655;48.744;9.162;2023-02-12T12:15:06;98060.63;;;10.70;100.00
11198;BME280;5655;48.744;9.162;2023-02-12T12:18:01;98050.56;;;11.25;100.00
11198;BME280;5655;48.744;9.162;2023-02-12T12:20:52;98050.16;;;10.48;100.00
11198;BME280;5655;48.744;9.162;2023-02-12T12:23:30;98055.00;;;10.92;100.00
11198;BME280;5655;48.744;9.162;2023-02-12T12:26:03;98053.63;;;10.86;100.00
11198;BME280;5655;48.744;9.162;2023-02-12T12:28:40;98050.13;;;10.94;100.00
11198;BME280;5655;48.744;9.162;2023-02-12T12:34:04;98046.97;;;10.54;100.00
11198;BME280;5655;48.744;9.162;2023-02-12T12:40:04;98044.06;;;10.76;100.00
11198;BME280;5655;48.744;9.162;2023-02-12T12:51:08;98041.50;;;10.80;100.00
11198;BME280;5655;48.744;9.162;2023-02-12T12:53:41;98037.72;;;11.10;100.00
11198;BME280;5655;48.744;9.162;2023-02-12T12:56:35;98027.25;;;10.97;100.00
11198;BME280;5655;48.744;9.162;2023-02-12T13:07:50;98019.81;;;11.02;100.00
11198;BME280;5655;48.744;9.162;2023-02-12T13:13:39;98013.34;;;12.19;100.00
11198;BME280;5655;48.744;9.162;2023-02-12T13:16:04;98007.22;;;11.65;100.00
11198;BME280;5655;48.744;9.162;2023-02-12T13:18:44;98004.16;;;11.33;100.00
11198;BME280;5655;48.744;9.162;2023-02-12T13:27:03;97999.50;;;11.63;100.00
11198;BME280;5655;48.744;9.162;2023-02-12T13:29:37;98000.44;;;12.00;100.00
11198;BME280;5655;48.744;9.162;2023-02-12T13:32:29;98001.63;;;12.60;100.00
11198;BME280;5655;48.744;9.162;2023-02-12T13:34:57;97998.88;;;11.99;100.00
11198;BME280;5655;48.744;9.162;2023-02-12T13:37:35;98000.50;;;13.09;100.00
11198;BME280;5655;48.744;9.162;2023-02-12T13:40:07;97991.09;;;13.28;100.00
11198;BME280;5655;48.744;9.162;2023-02-12T13:42:49;97988.66;;;13.10;100.00
11198;BME280;5655;48.744;9.162;2023-02-12T13:48:34;97991.13;;;13.15;100.00
11198;BME280;5655;48.744;9.162;2023-02-12T13:51:06;97994.44;;;13.37;100.00
11198;BME280;5655;48.744;9.162;2023-02-12T13:53:57;97986.22;;;13.73;100.00
11198;BME280;5655;48.744;9.162;2023-02-12T13:56:50;97981.47;;;13.27;100.00
11198;BME280;5655;48.744;9.162;2023-02-12T14:02:02;97986.03;;;13.66;100.00
11198;BME280;5655;48.744;9.162;2023-02-12T14:04:33;97986.16;;;13.30;100.00
11198;BME280;5655;48.744;9.162;2023-02-12T14:07:07;97979.41;;;13.36;100.00
11198;BME280;5655;48.744;9.162;2023-02-12T14:14:51;97981.38;;;12.74;100.00
11198;BME280;5655;48.744;9.162;2023-02-12T14:20:23;97976.47;;;12.89;100.00
11198;BME280;5655;48.744;9.162;2023-02-12T14:27:50;97971.22;;;12.68;100.00
11198;BME280;5655;48.744;9.162;2023-02-12T14:30:28;97955.97;;;12.48;100.00
11198;BME280;5655;48.744;9.162;2023-02-12T14:32:57;97956.09;;;12.27;100.00
11198;BME280;5655;48.744;9.162;2023-02-12T14:35:29;97952.59;;;12.14;100.00
11198;BME280;5655;48.744;9.162;2023-02-12T14:38:00;97947.91;;;12.36;100.00
11198;BME280;5655;48.744;9.162;2023-02-12T14:42:58;97949.88;;;11.69;100.00
11198;BME280;5655;48.744;9.162;2023-02-12T14:45:41;97945.41;;;11.82;100.00
11198;BME280;5655;48.744;9.162;2023-02-12T14:51:04;97945.66;;;11.48;100.00
11198;BME280;5655;48.744;9.162;2023-02-12T14:53:34;97947.72;;;11.83;100.00
11198;BME280;5655;48.744;9.162;2023-02-12T14:56:03;97946.94;;;11.83;100.00
11198;BME280;5655;48.744;9.162;2023-02-12T14:58:30;97954.19;;;11.50;100.00
11198;BME280;5655;48.744;9.162;2023-02-12T15:00:58;97946.59;;;11.31;100.00
11198;BME280;5655;48.744;9.162;2023-02-12T15:03:40;97943.50;;;11.62;100.00
11198;BME280;5655;48.744;9.162;2023-02-12T15:06:15;97958.59;;;11.33;100.00
11198;BME280;5655;48.744;9.162;2023-02-12T15:08:57;97949.44;;;11.67;100.00
11198;BME280;5655;48.744;9.162;2023-02-12T15:11:44;97945.81;;;11.72;100.00
11198;BME280;5655;48.744;9.162;2023-02-12T15:14:18;97952.13;;;11.34;100.00
11198;BME280;5655;48.744;9.162;2023-02-12T15:17:08;97952.22;;;11.59;100.00